sensor_id;sensor_type;location;lat;lon;timestamp;P1;durP1;ratioP1;P2;durP2;ratioP2
37239;SDS011;23130;48.760;9.178;2022-12-07T00:01:25;10.05;;;6.00;;
37239;SDS011;23130;48.760;9.178;2022-12-07T00:03:53;11.00;;;6.35;;
37239;SDS011;23130;48.760;9.178;2022-12-07T00:06:28;11.40;;;6.22;;
37239;SDS011;23130;48.760;9.178;2022-12-07T00:08:55;13.55;;;6.93;;
37239;SDS011;23130;48.760;9.178;2022-12-07T00:11:21;11.10;;;6.35;;
37239;SDS011;23130;48.760;9.178;2022-12-07T00:13:50;13.75;;;6.70;;
37239;SDS011;23130;48.760;9.178;2022-12-07T00:16:28;11.75;;;6.40;;
37239;SDS011;23130;48.760;9.178;2022-12-07T00:18:55;13.20;;;6.75;;
37239;SDS011;23130;48.760;9.178;2022-12-07T00:21:22;9.60;;;6.13;;
37239;SDS011;23130;48.760;9.178;2022-12-07T00:23:50;11.60;;;7.00;;
37239;SDS011;23130;48.760;9.178;2022-12-07T00:26:20;11.88;;;6.65;;
37239;SDS011;23130;48.760;9.178;2022-12-07T00:28:53;12.40;;;6.75;;
37239;SDS011;23130;48.760;9.178;2022-12-07T00:31:22;12.10;;;6.93;;
37239;SDS011;23130;48.760;9.178;2022-12-07T00:33:49;12.38;;;6.80;;
37239;SDS011;23130;48.760;9.178;2022-12-07T00:36:16;12.35;;;7.35;;
37239;SDS011;23130;48.760;9.178;2022-12-07T00:38:44;11.43;;;6.63;;
37239;SDS011;23130;48.760;9.178;2022-12-07T00:41:13;11.52;;;7.40;;
37239;SDS011;23130;48.760;9.178;2022-12-07T00:43:44;12.23;;;7.18;;
37239;SDS011;23130;48.760;9.178;2022-12-07T00:46:11;12.13;;;7.50;;
37239;SDS011;23130;48.760;9.178;2022-12-07T00:48:37;11.40;;;6.82;;
37239;SDS011;23130;48.760;9.178;2022-12-07T00:51:03;11.57;;;7.55;;
37239;SDS011;23130;48.760;9.178;2022-12-07T00:53:30;15.43;;;7.22;;
37239;SDS011;23130;48.760;9.178;2022-12-07T00:55:56;12.23;;;7.88;;
37239;SDS011;23130;48.760;9.178;2022-12-07T00:58:22;13.50;;;7.75;;
37239;SDS011;23130;48.760;9.178;2022-12-07T01:00:48;13.70;;;7.45;;
37239;SDS011;23130;48.760;9.178;2022-12-07T01:03:14;13.75;;;8.27;;
37239;SDS011;23130;48.760;9.178;2022-12-07T01:05:40;13.32;;;7.78;;
37239;SDS011;23130;48.760;9.178;2022-12-07T01:08:18;10.82;;;6.35;;
37239;SDS011;23130;48.760;9.178;2022-12-07T01:10:44;12.45;;;7.57;;
37239;SDS011;23130;48.760;9.178;2022-12-07T01:13:09;12.60;;;7.55;;
37239;SDS011;23130;48.760;9.178;2022-12-07T01:15:38;13.57;;;7.93;;
37239;SDS011;23130;48.760;9.178;2022-12-07T01:18:07;11.20;;;7.10;;
37239;SDS011;23130;48.760;9.178;2022-12-07T01:20:33;13.23;;;8.13;;
37239;SDS011;23130;48.760;9.178;2022-12-07T01:22:58;13.48;;;7.35;;
37239;SDS011;23130;48.760;9.178;2022-12-07T01:25:24;11.43;;;7.13;;
37239;SDS011;23130;48.760;9.178;2022-12-07T01:27:49;12.70;;;6.75;;
37239;SDS011;23130;48.760;9.178;2022-12-07T01:30:15;12.98;;;7.78;;
37239;SDS011;23130;48.760;9.178;2022-12-07T01:32:41;16.23;;;9.05;;
37239;SDS011;23130;48.760;9.178;2022-12-07T01:35:06;14.80;;;7.72;;
37239;SDS011;23130;48.760;9.178;2022-12-07T01:37:36;14.48;;;7.70;;
37239;SDS011;23130;48.760;9.178;2022-12-07T01:40:03;14.40;;;7.47;;
37239;SDS011;23130;48.760;9.178;2022-12-07T01:42:30;14.05;;;7.43;;
37239;SDS011;23130;48.760;9.178;2022-12-07T01:47:44;13.60;;;7.15;;
37239;SDS011;23130;48.760;9.178;2022-12-07T01:50:14;15.05;;;8.43;;
37239;SDS011;23130;48.760;9.178;2022-12-07T01:52:40;14.98;;;8.45;;
37239;SDS011;23130;48.760;9.178;2022-12-07T01:55:08;15.98;;;8.70;;
37239;SDS011;23130;48.760;9.178;2022-12-07T01:57:38;13.15;;;7.22;;
37239;SDS011;23130;48.760;9.178;2022-12-07T02:00:07;14.75;;;8.30;;
37239;SDS011;23130;48.760;9.178;2022-12-07T02:02:41;14.32;;;7.97;;
37239;SDS011;23130;48.760;9.178;2022-12-07T02:05:26;13.32;;;7.93;;
37239;SDS011;23130;48.760;9.178;2022-12-07T02:07:53;16.92;;;7.75;;
37239;SDS011;23130;48.760;9.178;2022-12-07T02:10:22;15.30;;;8.60;;
37239;SDS011;23130;48.760;9.178;2022-12-07T02:12:54;12.40;;;7.72;;
37239;SDS011;23130;48.760;9.178;2022-12-07T02:15:23;12.73;;;7.40;;
37239;SDS011;23130;48.760;9.178;2022-12-07T02:20:47;15.20;;;8.23;;
37239;SDS011;23130;48.760;9.178;2022-12-07T02:29:36;15.07;;;8.35;;
37239;SDS011;23130;48.760;9.178;2022-12-07T02:32:23;14.05;;;7.80;;
37239;SDS011;23130;48.760;9.178;2022-12-07T02:34:56;14.82;;;7.47;;
37239;SDS011;23130;48.760;9.178;2022-12-07T02:37:39;14.40;;;7.70;;
37239;SDS011;23130;48.760;9.178;2022-12-07T02:42:45;13.35;;;8.20;;
37239;SDS011;23130;48.760;9.178;2022-12-07T02:45:17;16.25;;;8.20;;
37239;SDS011;23130;48.760;9.178;2022-12-07T02:47:46;12.93;;;6.78;;
37239;SDS011;23130;48.760;9.178;2022-12-07T02:50:20;12.52;;;6.68;;
37239;SDS011;23130;48.760;9.178;2022-12-07T02:52:46;14.30;;;7.95;;
37239;SDS011;23130;48.760;9.178;2022-12-07T02:55:12;12.63;;;7.43;;
37239;SDS011;23130;48.760;9.178;2022-12-07T03:00:20;11.40;;;6.55;;
37239;SDS011;23130;48.760;9.178;2022-12-07T03:03:08;12.55;;;6.13;;
37239;SDS011;23130;48.760;9.178;2022-12-07T03:11:59;9.32;;;6.03;;
37239;SDS011;23130;48.760;9.178;2022-12-07T03:14:22;13.30;;;6.80;;
37239;SDS011;23130;48.760;9.178;2022-12-07T03:17:01;12.43;;;6.57;;
37239;SDS011;23130;48.760;9.178;2022-12-07T03:19:32;11.63;;;6.13;;
37239;SDS011;23130;48.760;9.178;2022-12-07T03:22:00;12.38;;;6.53;;
37239;SDS011;23130;48.760;9.178;2022-12-07T03:24:50;12.27;;;6.90;;
37239;SDS011;23130;48.760;9.178;2022-12-07T03:27:30;11.98;;;6.53;;
37239;SDS011;23130;48.760;9.178;2022-12-07T03:30:00;15.68;;;7.68;;
37239;SDS011;23130;48.760;9.178;2022-12-07T03:32:43;13.40;;;7.90;;
37239;SDS011;23130;48.760;9.178;2022-12-07T03:35:34;14.73;;;7.47;;
37239;SDS011;23130;48.760;9.178;2022-12-07T03:38:27;11.70;;;7.47;;
37239;SDS011;23130;48.760;9.178;2022-12-07T03:41:05;14.50;;;8.05;;
37239;SDS011;23130;48.760;9.178;2022-12-07T03:43:34;12.90;;;7.13;;
37239;SDS011;23130;48.760;9.178;2022-12-07T03:49:39;14.13;;;6.95;;
37239;SDS011;23130;48.760;9.178;2022-12-07T03:54:47;12.98;;;7.22;;
37239;SDS011;23130;48.760;9.178;2022-12-07T03:57:19;13.18;;;7.53;;
37239;SDS011;23130;48.760;9.178;2022-12-07T03:59:47;14.00;;;7.68;;
37239;SDS011;23130;48.760;9.178;2022-12-07T04:02:13;11.30;;;6.13;;
37239;SDS011;23130;48.760;9.178;2022-12-07T04:04:39;13.45;;;6.93;;
37239;SDS011;23130;48.760;9.178;2022-12-07T04:07:05;13.60;;;7.07;;
37239;SDS011;23130;48.760;9.178;2022-12-07T04:09:30;12.00;;;7.13;;
37239;SDS011;23130;48.760;9.178;2022-12-07T04:11:56;11.00;;;6.07;;
37239;SDS011;23130;48.760;9.178;2022-12-07T04:14:22;11.82;;;6.90;;
37239;SDS011;23130;48.760;9.178;2022-12-07T04:16:51;10.95;;;6.10;;
37239;SDS011;23130;48.760;9.178;2022-12-07T04:19:19;13.20;;;6.88;;
37239;SDS011;23130;48.760;9.178;2022-12-07T04:21:47;11.93;;;7.00;;
37239;SDS011;23130;48.760;9.178;2022-12-07T04:24:13;12.20;;;6.18;;
37239;SDS011;23130;48.760;9.178;2022-12-07T04:26:39;13.45;;;6.15;;
37239;SDS011;23130;48.760;9.178;2022-12-07T04:29:06;10.35;;;5.32;;
37239;SDS011;23130;48.760;9.178;2022-12-07T04:31:31;10.93;;;6.32;;
37239;SDS011;23130;48.760;9.178;2022-12-07T04:33:57;13.30;;;6.47;;
37239;SDS011;23130;48.760;9.178;2022-12-07T04:36:23;11.93;;;6.65;;
37239;SDS011;23130;48.760;9.178;2022-12-07T04:38:48;9.98;;;5.50;;
37239;SDS011;23130;48.760;9.178;2022-12-07T04:41:14;8.10;;;4.40;;
37239;SDS011;23130;48.760;9.178;2022-12-07T04:43:39;7.13;;;4.57;;
37239;SDS011;23130;48.760;9.178;2022-12-07T04:46:05;8.02;;;4.28;;
37239;SDS011;23130;48.760;9.178;2022-12-07T04:48:30;8.40;;;5.05;;
37239;SDS011;23130;48.760;9.178;2022-12-07T04:50:56;8.35;;;4.68;;
37239;SDS011;23130;48.760;9.178;2022-12-07T04:53:22;8.00;;;4.07;;
37239;SDS011;23130;48.760;9.178;2022-12-07T04:55:48;5.82;;;3.65;;
37239;SDS011;23130;48.760;9.178;2022-12-07T04:58:13;8.77;;;4.40;;
37239;SDS011;23130;48.760;9.178;2022-12-07T05:00:39;7.57;;;3.78;;
37239;SDS011;23130;48.760;9.178;2022-12-07T05:03:05;6.53;;;3.38;;
37239;SDS011;23130;48.760;9.178;2022-12-07T05:05:31;6.43;;;3.40;;
37239;SDS011;23130;48.760;9.178;2022-12-07T05:07:57;5.70;;;2.63;;
37239;SDS011;23130;48.760;9.178;2022-12-07T05:10:22;3.92;;;2.63;;
37239;SDS011;23130;48.760;9.178;2022-12-07T05:12:48;4.30;;;2.25;;
37239;SDS011;23130;48.760;9.178;2022-12-07T05:15:14;5.50;;;2.78;;
37239;SDS011;23130;48.760;9.178;2022-12-07T05:17:40;4.43;;;2.28;;
37239;SDS011;23130;48.760;9.178;2022-12-07T05:20:06;4.45;;;2.55;;
37239;SDS011;23130;48.760;9.178;2022-12-07T05:22:32;5.63;;;2.85;;
37239;SDS011;23130;48.760;9.178;2022-12-07T05:24:58;6.47;;;2.47;;
37239;SDS011;23130;48.760;9.178;2022-12-07T05:27:24;4.13;;;2.00;;
37239;SDS011;23130;48.760;9.178;2022-12-07T05:29:50;4.57;;;2.42;;
37239;SDS011;23130;48.760;9.178;2022-12-07T05:32:16;4.70;;;2.75;;
37239;SDS011;23130;48.760;9.178;2022-12-07T05:34:42;4.75;;;2.58;;
37239;SDS011;23130;48.760;9.178;2022-12-07T05:37:08;4.80;;;2.60;;
37239;SDS011;23130;48.760;9.178;2022-12-07T05:39:33;5.55;;;2.60;;
37239;SDS011;23130;48.760;9.178;2022-12-07T05:41:59;6.75;;;3.92;;
37239;SDS011;23130;48.760;9.178;2022-12-07T05:44:36;7.38;;;4.28;;
37239;SDS011;23130;48.760;9.178;2022-12-07T05:47:02;7.90;;;4.07;;
37239;SDS011;23130;48.760;9.178;2022-12-07T05:49:28;8.02;;;4.32;;
37239;SDS011;23130;48.760;9.178;2022-12-07T05:51:54;10.05;;;4.95;;
37239;SDS011;23130;48.760;9.178;2022-12-07T05:54:19;8.85;;;4.32;;
37239;SDS011;23130;48.760;9.178;2022-12-07T05:56:45;7.47;;;3.65;;
37239;SDS011;23130;48.760;9.178;2022-12-07T05:59:10;8.48;;;4.30;;
37239;SDS011;23130;48.760;9.178;2022-12-07T06:01:58;9.55;;;4.90;;
37239;SDS011;23130;48.760;9.178;2022-12-07T06:04:30;8.45;;;4.65;;
37239;SDS011;23130;48.760;9.178;2022-12-07T06:06:57;7.13;;;4.32;;
37239;SDS011;23130;48.760;9.178;2022-12-07T06:09:23;9.88;;;5.18;;
37239;SDS011;23130;48.760;9.178;2022-12-07T06:11:50;8.32;;;4.50;;
37239;SDS011;23130;48.760;9.178;2022-12-07T06:14:35;8.43;;;4.70;;
37239;SDS011;23130;48.760;9.178;2022-12-07T06:17:01;9.48;;;5.07;;
37239;SDS011;23130;48.760;9.178;2022-12-07T06:19:27;11.13;;;5.93;;
37239;SDS011;23130;48.760;9.178;2022-12-07T06:21:53;9.55;;;4.57;;
37239;SDS011;23130;48.760;9.178;2022-12-07T06:24:19;7.03;;;4.20;;
37239;SDS011;23130;48.760;9.178;2022-12-07T06:26:44;7.25;;;3.97;;
37239;SDS011;23130;48.760;9.178;2022-12-07T06:29:11;11.70;;;5.80;;
37239;SDS011;23130;48.760;9.178;2022-12-07T06:31:37;10.10;;;4.93;;
37239;SDS011;23130;48.760;9.178;2022-12-07T06:34:04;8.95;;;4.95;;
37239;SDS011;23130;48.760;9.178;2022-12-07T06:36:31;9.10;;;4.57;;
37239;SDS011;23130;48.760;9.178;2022-12-07T06:38:57;7.88;;;4.53;;
37239;SDS011;23130;48.760;9.178;2022-12-07T06:41:23;8.57;;;4.53;;
37239;SDS011;23130;48.760;9.178;2022-12-07T06:43:49;9.27;;;4.90;;
37239;SDS011;23130;48.760;9.178;2022-12-07T06:46:15;11.63;;;6.32;;
37239;SDS011;23130;48.760;9.178;2022-12-07T06:48:42;6.97;;;4.13;;
37239;SDS011;23130;48.760;9.178;2022-12-07T06:51:08;7.75;;;4.88;;
37239;SDS011;23130;48.760;9.178;2022-12-07T06:53:35;10.48;;;4.88;;
37239;SDS011;23130;48.760;9.178;2022-12-07T06:56:01;13.82;;;5.90;;
37239;SDS011;23130;48.760;9.178;2022-12-07T06:58:27;16.23;;;8.18;;
37239;SDS011;23130;48.760;9.178;2022-12-07T07:00:53;9.55;;;4.80;;
37239;SDS011;23130;48.760;9.178;2022-12-07T07:03:18;8.05;;;4.75;;
37239;SDS011;23130;48.760;9.178;2022-12-07T07:05:44;5.78;;;3.15;;
37239;SDS011;23130;48.760;9.178;2022-12-07T07:08:10;8.60;;;4.28;;
37239;SDS011;23130;48.760;9.178;2022-12-07T07:10:37;8.35;;;4.78;;
37239;SDS011;23130;48.760;9.178;2022-12-07T07:13:03;7.07;;;4.10;;
37239;SDS011;23130;48.760;9.178;2022-12-07T07:15:29;9.25;;;4.25;;
37239;SDS011;23130;48.760;9.178;2022-12-07T07:17:55;12.52;;;5.93;;
37239;SDS011;23130;48.760;9.178;2022-12-07T07:20:20;9.57;;;4.60;;
37239;SDS011;23130;48.760;9.178;2022-12-07T07:22:47;9.32;;;4.35;;
37239;SDS011;23130;48.760;9.178;2022-12-07T07:25:13;10.45;;;3.83;;
37239;SDS011;23130;48.760;9.178;2022-12-07T07:27:39;7.53;;;3.90;;
37239;SDS011;23130;48.760;9.178;2022-12-07T07:30:04;8.45;;;4.13;;
37239;SDS011;23130;48.760;9.178;2022-12-07T07:32:31;8.25;;;4.30;;
37239;SDS011;23130;48.760;9.178;2022-12-07T07:34:56;9.65;;;4.57;;
37239;SDS011;23130;48.760;9.178;2022-12-07T07:37:22;10.65;;;4.43;;
37239;SDS011;23130;48.760;9.178;2022-12-07T07:39:48;11.63;;;4.78;;
37239;SDS011;23130;48.760;9.178;2022-12-07T07:42:14;7.43;;;4.22;;
37239;SDS011;23130;48.760;9.178;2022-12-07T07:44:39;8.23;;;4.60;;
37239;SDS011;23130;48.760;9.178;2022-12-07T07:47:05;7.45;;;4.55;;
37239;SDS011;23130;48.760;9.178;2022-12-07T07:49:31;9.20;;;4.07;;
37239;SDS011;23130;48.760;9.178;2022-12-07T07:51:56;10.40;;;4.50;;
37239;SDS011;23130;48.760;9.178;2022-12-07T07:54:22;8.88;;;4.82;;
37239;SDS011;23130;48.760;9.178;2022-12-07T07:56:47;6.07;;;3.25;;
37239;SDS011;23130;48.760;9.178;2022-12-07T07:59:13;6.28;;;3.75;;
37239;SDS011;23130;48.760;9.178;2022-12-07T08:01:40;8.27;;;3.58;;
37239;SDS011;23130;48.760;9.178;2022-12-07T08:04:05;6.95;;;3.85;;
37239;SDS011;23130;48.760;9.178;2022-12-07T08:06:31;8.43;;;3.22;;
37239;SDS011;23130;48.760;9.178;2022-12-07T08:08:56;6.15;;;3.80;;
37239;SDS011;23130;48.760;9.178;2022-12-07T08:11:23;8.43;;;3.85;;
37239;SDS011;23130;48.760;9.178;2022-12-07T08:13:49;6.55;;;3.83;;
37239;SDS011;23130;48.760;9.178;2022-12-07T08:16:14;7.32;;;4.28;;
37239;SDS011;23130;48.760;9.178;2022-12-07T08:18:40;7.43;;;4.20;;
37239;SDS011;23130;48.760;9.178;2022-12-07T08:21:07;7.90;;;4.30;;
37239;SDS011;23130;48.760;9.178;2022-12-07T08:23:36;7.03;;;3.80;;
37239;SDS011;23130;48.760;9.178;2022-12-07T08:26:06;6.97;;;3.72;;
37239;SDS011;23130;48.760;9.178;2022-12-07T08:28:34;8.55;;;4.47;;
37239;SDS011;23130;48.760;9.178;2022-12-07T08:31:00;7.03;;;3.88;;
37239;SDS011;23130;48.760;9.178;2022-12-07T08:33:27;7.30;;;3.95;;
37239;SDS011;23130;48.760;9.178;2022-12-07T08:35:53;9.07;;;4.63;;
37239;SDS011;23130;48.760;9.178;2022-12-07T08:38:19;8.20;;;4.00;;
37239;SDS011;23130;48.760;9.178;2022-12-07T08:40:45;7.50;;;3.67;;
37239;SDS011;23130;48.760;9.178;2022-12-07T08:45:43;8.05;;;4.28;;
37239;SDS011;23130;48.760;9.178;2022-12-07T08:48:09;5.47;;;3.28;;
37239;SDS011;23130;48.760;9.178;2022-12-07T08:50:37;7.30;;;3.50;;
37239;SDS011;23130;48.760;9.178;2022-12-07T08:53:04;7.15;;;4.15;;
37239;SDS011;23130;48.760;9.178;2022-12-07T08:55:31;8.40;;;4.50;;
37239;SDS011;23130;48.760;9.178;2022-12-07T08:57:58;8.85;;;4.35;;
37239;SDS011;23130;48.760;9.178;2022-12-07T09:00:25;6.57;;;4.07;;
37239;SDS011;23130;48.760;9.178;2022-12-07T09:02:51;9.20;;;4.57;;
37239;SDS011;23130;48.760;9.178;2022-12-07T09:05:18;6.03;;;3.47;;
37239;SDS011;23130;48.760;9.178;2022-12-07T09:07:44;6.18;;;3.20;;
37239;SDS011;23130;48.760;9.178;2022-12-07T09:10:12;6.60;;;3.78;;
37239;SDS011;23130;48.760;9.178;2022-12-07T09:12:39;9.38;;;4.10;;
37239;SDS011;23130;48.760;9.178;2022-12-07T09:15:05;6.75;;;3.80;;
37239;SDS011;23130;48.760;9.178;2022-12-07T09:17:34;5.85;;;2.65;;
37239;SDS011;23130;48.760;9.178;2022-12-07T09:20:00;6.63;;;3.33;;
37239;SDS011;23130;48.760;9.178;2022-12-07T09:22:30;5.97;;;3.85;;
37239;SDS011;23130;48.760;9.178;2022-12-07T09:24:59;7.40;;;3.35;;
37239;SDS011;23130;48.760;9.178;2022-12-07T09:27:25;7.47;;;3.75;;
37239;SDS011;23130;48.760;9.178;2022-12-07T09:29:52;7.82;;;4.10;;
37239;SDS011;23130;48.760;9.178;2022-12-07T09:32:18;6.85;;;3.08;;
37239;SDS011;23130;48.760;9.178;2022-12-07T09:34:43;5.60;;;3.08;;
37239;SDS011;23130;48.760;9.178;2022-12-07T09:37:09;6.00;;;2.85;;
37239;SDS011;23130;48.760;9.178;2022-12-07T09:39:37;4.68;;;2.85;;
37239;SDS011;23130;48.760;9.178;2022-12-07T09:42:03;5.45;;;3.08;;
37239;SDS011;23130;48.760;9.178;2022-12-07T09:44:30;5.07;;;2.70;;
37239;SDS011;23130;48.760;9.178;2022-12-07T09:46:57;5.70;;;2.70;;
37239;SDS011;23130;48.760;9.178;2022-12-07T09:49:27;6.88;;;3.20;;
37239;SDS011;23130;48.760;9.178;2022-12-07T09:54:33;5.07;;;2.00;;
37239;SDS011;23130;48.760;9.178;2022-12-07T09:57:02;3.80;;;2.00;;
37239;SDS011;23130;48.760;9.178;2022-12-07T09:59:28;7.78;;;2.47;;
37239;SDS011;23130;48.760;9.178;2022-12-07T10:01:54;5.85;;;2.55;;
37239;SDS011;23130;48.760;9.178;2022-12-07T10:04:26;7.97;;;3.17;;
37239;SDS011;23130;48.760;9.178;2022-12-07T10:06:54;4.65;;;2.83;;
37239;SDS011;23130;48.760;9.178;2022-12-07T10:09:20;4.53;;;2.33;;
37239;SDS011;23130;48.760;9.178;2022-12-07T10:14:24;5.13;;;3.08;;
37239;SDS011;23130;48.760;9.178;2022-12-07T10:16:53;5.65;;;3.20;;
37239;SDS011;23130;48.760;9.178;2022-12-07T10:22:05;6.05;;;3.00;;
37239;SDS011;23130;48.760;9.178;2022-12-07T10:24:38;5.80;;;2.55;;
37239;SDS011;23130;48.760;9.178;2022-12-07T10:27:17;3.13;;;1.80;;
37239;SDS011;23130;48.760;9.178;2022-12-07T10:29:46;4.00;;;1.75;;
37239;SDS011;23130;48.760;9.178;2022-12-07T10:34:40;7.03;;;2.22;;
37239;SDS011;23130;48.760;9.178;2022-12-07T10:42:24;5.88;;;2.30;;
37239;SDS011;23130;48.760;9.178;2022-12-07T10:47:44;4.60;;;1.98;;
37239;SDS011;23130;48.760;9.178;2022-12-07T10:58:52;8.15;;;2.25;;
37239;SDS011;23130;48.760;9.178;2022-12-07T11:01:28;5.75;;;2.55;;
37239;SDS011;23130;48.760;9.178;2022-12-07T11:09:51;4.80;;;2.65;;
37239;SDS011;23130;48.760;9.178;2022-12-07T11:12:41;3.70;;;1.92;;
37239;SDS011;23130;48.760;9.178;2022-12-07T11:17:56;5.40;;;2.10;;
37239;SDS011;23130;48.760;9.178;2022-12-07T11:20:53;4.45;;;1.83;;
37239;SDS011;23130;48.760;9.178;2022-12-07T11:37:05;4.32;;;2.05;;
37239;SDS011;23130;48.760;9.178;2022-12-07T11:39:54;3.97;;;1.48;;
37239;SDS011;23130;48.760;9.178;2022-12-07T11:42:25;4.22;;;1.48;;
37239;SDS011;23130;48.760;9.178;2022-12-07T11:45:16;2.72;;;1.27;;
37239;SDS011;23130;48.760;9.178;2022-12-07T11:47:47;3.25;;;1.42;;
37239;SDS011;23130;48.760;9.178;2022-12-07T11:50:50;2.95;;;1.50;;
37239;SDS011;23130;48.760;9.178;2022-12-07T11:53:36;2.78;;;1.40;;
37239;SDS011;23130;48.760;9.178;2022-12-07T11:56:07;2.53;;;1.45;;
37239;SDS011;23130;48.760;9.178;2022-12-07T12:03:51;4.20;;;1.40;;
37239;SDS011;23130;48.760;9.178;2022-12-07T12:06:20;3.38;;;1.80;;
37239;SDS011;23130;48.760;9.178;2022-12-07T12:08:49;2.75;;;1.30;;
37239;SDS011;23130;48.760;9.178;2022-12-07T12:21:53;5.43;;;2.92;;
37239;SDS011;23130;48.760;9.178;2022-12-07T12:24:23;4.28;;;2.47;;
37239;SDS011;23130;48.760;9.178;2022-12-07T12:26:54;4.32;;;2.45;;
37239;SDS011;23130;48.760;9.178;2022-12-07T12:29:29;6.22;;;3.05;;
37239;SDS011;23130;48.760;9.178;2022-12-07T12:32:13;6.35;;;3.80;;
37239;SDS011;23130;48.760;9.178;2022-12-07T12:42:53;8.18;;;4.20;;
37239;SDS011;23130;48.760;9.178;2022-12-07T12:45:26;6.75;;;4.00;;
37239;SDS011;23130;48.760;9.178;2022-12-07T12:50:30;6.35;;;3.55;;
37239;SDS011;23130;48.760;9.178;2022-12-07T12:53:05;5.97;;;3.90;;
37239;SDS011;23130;48.760;9.178;2022-12-07T13:00:43;5.72;;;3.08;;
37239;SDS011;23130;48.760;9.178;2022-12-07T13:03:29;4.72;;;2.97;;
37239;SDS011;23130;48.760;9.178;2022-12-07T13:08:44;6.82;;;3.40;;
37239;SDS011;23130;48.760;9.178;2022-12-07T13:11:18;6.78;;;2.78;;
37239;SDS011;23130;48.760;9.178;2022-12-07T13:13:50;4.95;;;2.80;;
37239;SDS011;23130;48.760;9.178;2022-12-07T13:16:36;5.07;;;3.03;;
37239;SDS011;23130;48.760;9.178;2022-12-07T13:19:02;4.85;;;2.72;;
37239;SDS011;23130;48.760;9.178;2022-12-07T13:21:48;4.13;;;2.88;;
37239;SDS011;23130;48.760;9.178;2022-12-07T13:24:13;5.03;;;2.85;;
37239;SDS011;23130;48.760;9.178;2022-12-07T13:26:41;5.82;;;3.22;;
37239;SDS011;23130;48.760;9.178;2022-12-07T13:31:43;3.67;;;1.90;;
37239;SDS011;23130;48.760;9.178;2022-12-07T13:34:29;4.80;;;2.75;;
37239;SDS011;23130;48.760;9.178;2022-12-07T13:39:58;4.07;;;2.13;;
37239;SDS011;23130;48.760;9.178;2022-12-07T13:44:55;3.20;;;1.95;;
37239;SDS011;23130;48.760;9.178;2022-12-07T13:49:59;3.75;;;1.88;;
37239;SDS011;23130;48.760;9.178;2022-12-07T13:52:26;4.95;;;2.20;;
37239;SDS011;23130;48.760;9.178;2022-12-07T13:55:01;4.75;;;1.83;;
37239;SDS011;23130;48.760;9.178;2022-12-07T13:57:27;4.10;;;2.33;;
37239;SDS011;23130;48.760;9.178;2022-12-07T13:59:59;4.35;;;2.47;;
37239;SDS011;23130;48.760;9.178;2022-12-07T14:02:30;5.35;;;2.40;;
37239;SDS011;23130;48.760;9.178;2022-12-07T14:05:10;4.70;;;2.60;;
37239;SDS011;23130;48.760;9.178;2022-12-07T14:08:40;3.13;;;2.00;;
37239;SDS011;23130;48.760;9.178;2022-12-07T14:15:53;3.85;;;2.28;;
37239;SDS011;23130;48.760;9.178;2022-12-07T14:18:26;6.22;;;2.42;;
37239;SDS011;23130;48.760;9.178;2022-12-07T14:21:03;4.47;;;2.00;;
37239;SDS011;23130;48.760;9.178;2022-12-07T14:23:30;2.65;;;1.73;;
37239;SDS011;23130;48.760;9.178;2022-12-07T14:26:04;3.92;;;1.73;;
37239;SDS011;23130;48.760;9.178;2022-12-07T14:28:34;3.75;;;2.25;;
37239;SDS011;23130;48.760;9.178;2022-12-07T14:31:02;2.80;;;1.70;;
37239;SDS011;23130;48.760;9.178;2022-12-07T14:33:28;5.25;;;2.10;;
37239;SDS011;23130;48.760;9.178;2022-12-07T14:35:54;4.35;;;2.17;;
37239;SDS011;23130;48.760;9.178;2022-12-07T14:38:22;4.72;;;2.50;;
37239;SDS011;23130;48.760;9.178;2022-12-07T14:40:49;3.88;;;2.13;;
37239;SDS011;23130;48.760;9.178;2022-12-07T14:43:17;6.07;;;1.92;;
37239;SDS011;23130;48.760;9.178;2022-12-07T14:45:44;4.10;;;2.30;;
37239;SDS011;23130;48.760;9.178;2022-12-07T14:48:13;3.80;;;2.30;;
37239;SDS011;23130;48.760;9.178;2022-12-07T14:50:44;3.40;;;1.83;;
37239;SDS011;23130;48.760;9.178;2022-12-07T14:53:14;4.50;;;2.13;;
37239;SDS011;23130;48.760;9.178;2022-12-07T14:55:42;7.55;;;2.13;;
37239;SDS011;23130;48.760;9.178;2022-12-07T14:58:14;3.88;;;2.72;;
37239;SDS011;23130;48.760;9.178;2022-12-07T15:03:07;6.88;;;3.20;;
37239;SDS011;23130;48.760;9.178;2022-12-07T15:05:33;5.55;;;2.92;;
37239;SDS011;23130;48.760;9.178;2022-12-07T15:07:58;6.63;;;2.88;;
37239;SDS011;23130;48.760;9.178;2022-12-07T15:10:28;6.65;;;3.08;;
37239;SDS011;23130;48.760;9.178;2022-12-07T15:13:00;6.33;;;3.30;;
37239;SDS011;23130;48.760;9.178;2022-12-07T15:15:49;8.18;;;3.78;;
37239;SDS011;23130;48.760;9.178;2022-12-07T15:18:16;7.18;;;3.75;;
37239;SDS011;23130;48.760;9.178;2022-12-07T15:20:43;6.38;;;3.55;;
37239;SDS011;23130;48.760;9.178;2022-12-07T15:23:10;6.60;;;3.10;;
37239;SDS011;23130;48.760;9.178;2022-12-07T15:25:36;5.80;;;3.65;;
37239;SDS011;23130;48.760;9.178;2022-12-07T15:28:05;6.25;;;3.50;;
37239;SDS011;23130;48.760;9.178;2022-12-07T15:30:30;6.65;;;3.58;;
37239;SDS011;23130;48.760;9.178;2022-12-07T15:32:56;5.63;;;3.78;;
37239;SDS011;23130;48.760;9.178;2022-12-07T15:35:21;10.32;;;3.50;;
37239;SDS011;23130;48.760;9.178;2022-12-07T15:37:48;5.72;;;3.35;;
37239;SDS011;23130;48.760;9.178;2022-12-07T15:40:14;7.78;;;3.63;;
37239;SDS011;23130;48.760;9.178;2022-12-07T15:42:40;8.00;;;4.75;;
37239;SDS011;23130;48.760;9.178;2022-12-07T15:45:06;5.38;;;3.33;;
37239;SDS011;23130;48.760;9.178;2022-12-07T15:47:38;5.85;;;3.63;;
37239;SDS011;23130;48.760;9.178;2022-12-07T15:50:08;5.70;;;3.20;;
37239;SDS011;23130;48.760;9.178;2022-12-07T15:52:36;8.75;;;4.13;;
37239;SDS011;23130;48.760;9.178;2022-12-07T15:55:02;8.25;;;4.13;;
37239;SDS011;23130;48.760;9.178;2022-12-07T15:57:31;9.48;;;4.20;;
37239;SDS011;23130;48.760;9.178;2022-12-07T16:00:02;6.13;;;3.28;;
37239;SDS011;23130;48.760;9.178;2022-12-07T16:02:29;7.55;;;4.68;;
37239;SDS011;23130;48.760;9.178;2022-12-07T16:04:54;6.25;;;3.70;;
37239;SDS011;23130;48.760;9.178;2022-12-07T16:07:20;7.15;;;4.30;;
37239;SDS011;23130;48.760;9.178;2022-12-07T16:09:46;6.05;;;3.85;;
37239;SDS011;23130;48.760;9.178;2022-12-07T16:12:12;6.43;;;3.28;;
37239;SDS011;23130;48.760;9.178;2022-12-07T16:14:39;7.35;;;3.80;;
37239;SDS011;23130;48.760;9.178;2022-12-07T16:17:05;6.55;;;3.88;;
37239;SDS011;23130;48.760;9.178;2022-12-07T16:19:32;8.05;;;4.00;;
37239;SDS011;23130;48.760;9.178;2022-12-07T16:21:58;8.50;;;5.00;;
37239;SDS011;23130;48.760;9.178;2022-12-07T16:24:24;10.50;;;4.40;;
37239;SDS011;23130;48.760;9.178;2022-12-07T16:26:52;8.50;;;4.40;;
37239;SDS011;23130;48.760;9.178;2022-12-07T16:29:18;10.73;;;5.10;;
37239;SDS011;23130;48.760;9.178;2022-12-07T16:31:45;7.93;;;5.10;;
37239;SDS011;23130;48.760;9.178;2022-12-07T16:34:14;9.60;;;5.28;;
37239;SDS011;23130;48.760;9.178;2022-12-07T16:36:39;11.20;;;5.82;;
37239;SDS011;23130;48.760;9.178;2022-12-07T16:39:05;8.20;;;5.32;;
37239;SDS011;23130;48.760;9.178;2022-12-07T16:41:31;12.98;;;6.25;;
37239;SDS011;23130;48.760;9.178;2022-12-07T16:44:02;10.05;;;5.63;;
37239;SDS011;23130;48.760;9.178;2022-12-07T16:46:32;10.20;;;6.28;;
37239;SDS011;23130;48.760;9.178;2022-12-07T16:49:00;14.25;;;6.25;;
37239;SDS011;23130;48.760;9.178;2022-12-07T16:51:26;12.70;;;6.72;;
37239;SDS011;23130;48.760;9.178;2022-12-07T16:53:52;13.35;;;6.45;;
37239;SDS011;23130;48.760;9.178;2022-12-07T16:56:18;12.30;;;6.35;;
37239;SDS011;23130;48.760;9.178;2022-12-07T16:58:44;15.20;;;6.30;;
37239;SDS011;23130;48.760;9.178;2022-12-07T17:01:11;13.73;;;6.72;;
37239;SDS011;23130;48.760;9.178;2022-12-07T17:03:39;15.05;;;7.60;;
37239;SDS011;23130;48.760;9.178;2022-12-07T17:06:14;14.30;;;7.18;;
37239;SDS011;23130;48.760;9.178;2022-12-07T17:08:42;12.88;;;7.38;;